»·PEaware :: N121JR KAVX-KSAN

N121JR :: KAVX-KSAN

FLIGHT INFORMATION

Flight Status: Arrived
Operator: Privately registered:
United States
More flights under this callsign
Pilot: Geoffrey K. (30224)
Aircraft: CESSNA T210 TURBO CENTURION
(T210)
More flights by this aircraft type
Origin: KAVX Catalina
United States
Destination: KSAN San Diego Intl-Lindbergh
United States
More flights between these airports :: More routes between these airports
Route: SXC V208 OCN V23 MZB
File this flight plan on PilotEdge
Remarks: TEC ROUTE CSTP56
Altitude:
(Current/Filed)
5,000ft
Speed:
(Current/Filed)
170kts
Departed: 01-Aug-20 04:53 PM
Arrived: 01-Aug-20 06:16 PM
Distance/Time
Traveled:
74nm/1:22
Distance/Time
To Go:
Arrived

Flight Plot

Page will automatically refresh every two minutes.


Map Options




Map Legend


Flown Route
Filed Route
Departure Airport
Arrival Airport
Navaid (VOR, NDB)
Fix

Horizontal Profiles

Position Reports

Time Latitude Longitude Heading Altitude Ground
Speed
01-Aug-20 16:31 33.404377 -118.414722 262 1540ft 0kts
01-Aug-20 16:32 33.404377 -118.414722 262 1540ft 0kts
01-Aug-20 16:33 33.404377 -118.414722 262 1540ft 0kts
01-Aug-20 16:34 33.404377 -118.414722 262 1540ft 0kts
01-Aug-20 16:35 33.404377 -118.414722 262 1540ft 0kts
01-Aug-20 16:36 33.404377 -118.414722 262 1540ft 0kts
01-Aug-20 16:37 33.404377 -118.414722 262 1540ft 0kts
01-Aug-20 16:38 33.404377 -118.414722 262 1540ft 0kts
01-Aug-20 16:39 33.404377 -118.414722 262 1540ft 0kts
01-Aug-20 16:40 33.404377 -118.414722 262 1540ft 0kts
01-Aug-20 16:41 33.404377 -118.414722 262 1540ft 0kts
01-Aug-20 16:42 33.404377 -118.414722 262 1540ft 0kts
01-Aug-20 16:43 33.404377 -118.414722 262 1540ft 0kts
01-Aug-20 16:44 33.404377 -118.414722 262 1540ft 0kts
01-Aug-20 16:45 33.404377 -118.414722 262 1540ft 0kts
01-Aug-20 16:46 33.404377 -118.414722 262 1540ft 0kts
01-Aug-20 16:47 33.404377 -118.414723 261 1540ft 0kts
01-Aug-20 16:48 33.407109 -118.411526 55 1500ft 0kts
01-Aug-20 16:49 33.407109 -118.411526 55 1500ft 0kts
01-Aug-20 16:50 33.407279 -118.411360 350 1498ft 0kts
01-Aug-20 16:51 33.407260 -118.411897 237 1503ft 19kts
01-Aug-20 16:52 33.391867 -118.437036 235 1425ft 155kts
01-Aug-20 16:53 33.363519 -118.480035 231 1423ft 169kts
01-Aug-20 16:54 33.335908 -118.521925 231 1963ft 155kts
01-Aug-20 16:55 33.308713 -118.563152 231 2303ft 165kts
01-Aug-20 16:56 33.280310 -118.606235 231 2636ft 157kts
01-Aug-20 16:57 33.254833 -118.644814 231 3614ft 142kts
01-Aug-20 16:58 33.230579 -118.681473 231 4607ft 140kts
01-Aug-20 16:59 33.204974 -118.720172 231 5006ft 164kts
01-Aug-20 17:00 33.181463 -118.767183 280 4999ft 172kts
01-Aug-20 17:01 33.214266 -118.783922 59 4989ft 173kts
01-Aug-20 17:02 33.235697 -118.731377 61 5002ft 185kts
01-Aug-20 17:03 33.260420 -118.676621 61 5000ft 188kts
01-Aug-20 17:04 33.285103 -118.621527 61 5000ft 188kts
01-Aug-20 17:05 33.309802 -118.566301 61 5000ft 188kts
01-Aug-20 17:06 33.334431 -118.511148 61 5000ft 188kts
01-Aug-20 17:07 33.359042 -118.455951 61 5000ft 188kts
01-Aug-20 17:08 33.370348 -118.396646 93 4999ft 188kts
01-Aug-20 17:09 33.363839 -118.334493 98 4999ft 188kts
01-Aug-20 17:10 33.355859 -118.272651 98 5000ft 188kts
01-Aug-20 17:11 33.347734 -118.210764 98 5000ft 188kts
01-Aug-20 17:12 33.339574 -118.148891 98 5000ft 188kts
01-Aug-20 17:13 33.331411 -118.087249 98 5000ft 188kts
01-Aug-20 17:14 33.323198 -118.025467 98 5000ft 188kts
01-Aug-20 17:15 33.314960 -117.963737 98 5000ft 188kts
01-Aug-20 17:16 33.306681 -117.901948 98 5000ft 188kts
01-Aug-20 17:17 33.298383 -117.840253 98 5000ft 188kts
01-Aug-20 17:18 33.290047 -117.778516 98 5000ft 188kts
01-Aug-20 17:19 33.281204 -117.716776 99 4999ft 188kts
01-Aug-20 17:20 33.271923 -117.655131 99 4999ft 188kts
01-Aug-20 17:21 33.262633 -117.593730 99 5000ft 188kts
01-Aug-20 17:22 33.254622 -117.531904 97 5000ft 188kts
01-Aug-20 17:23 33.247058 -117.469963 97 5000ft 188kts
01-Aug-20 17:24 33.225051 -117.417073 146 4999ft 188kts
01-Aug-20 17:25 33.177571 -117.391407 158 4999ft 188kts
01-Aug-20 17:26 33.128292 -117.370364 160 5000ft 188kts
01-Aug-20 17:27 33.081474 -117.350690 160 5000ft 188kts
01-Aug-20 17:28 33.032107 -117.329966 160 5000ft 188kts
01-Aug-20 17:29 32.982668 -117.309229 160 5000ft 188kts
01-Aug-20 17:30 32.933406 -117.288590 160 5000ft 188kts
01-Aug-20 17:31 32.883943 -117.267891 160 4999ft 188kts
01-Aug-20 17:32 32.836534 -117.256135 167 4960ft 171kts
01-Aug-20 17:33 32.809803 -117.212187 110 5004ft 167kts
01-Aug-20 17:34 32.794263 -117.160016 109 5003ft 167kts
01-Aug-20 17:35 32.778839 -117.107775 109 5003ft 167kts
01-Aug-20 17:36 32.763406 -117.055469 109 5003ft 167kts
01-Aug-20 17:37 32.748031 -117.003328 109 5003ft 167kts
01-Aug-20 17:38 32.732625 -116.951051 109 5003ft 166kts
01-Aug-20 17:39 32.720306 -116.909213 109 4660ft 135kts
01-Aug-20 17:56 32.786159 -117.107420 111 3396ft 126kts
01-Aug-20 17:57 32.786159 -117.107420 111 3396ft 126kts
01-Aug-20 17:58 32.778807 -117.084893 111 3394ft 126kts
01-Aug-20 17:59 32.768084 -117.051987 110 3946ft 107kts
01-Aug-20 18:00 32.756008 -117.014895 111 3966ft 126kts
01-Aug-20 18:00 32.745353 -116.982246 110 3964ft 127kts
01-Aug-20 18:02 32.730437 -116.936523 110 3964ft 127kts
01-Aug-20 18:03 32.717620 -116.897220 110 3964ft 127kts
01-Aug-20 18:04 32.701182 -116.861428 164 3960ft 127kts
01-Aug-20 18:04 32.672061 -116.865414 189 3965ft 127kts
01-Aug-20 18:06 32.633000 -116.878039 237 3944ft 128kts
01-Aug-20 18:07 32.647799 -116.912871 314 3927ft 127kts
01-Aug-20 18:07 32.668741 -116.937670 314 3928ft 127kts
01-Aug-20 18:08 32.682800 -116.975781 285 3643ft 136kts
01-Aug-20 18:09 32.692649 -117.018692 284 3340ft 131kts
01-Aug-20 18:10 32.701609 -117.057419 285 3169ft 103kts
01-Aug-20 18:11 32.709947 -117.093287 285 2005ft 90kts
01-Aug-20 18:12 32.716984 -117.123839 285 1442ft 98kts
01-Aug-20 18:13 32.724342 -117.154780 294 697ft 94kts
01-Aug-20 18:14 32.731315 -117.180546 283 40ft 62kts
01-Aug-20 18:15 32.732836 -117.181857 110 21ft 0kts
01-Aug-20 18:16 32.732836 -117.181857 110 21ft 0kts

Navigation Log

Ident Type
Flight plan parsing failed, navigation log unavailable